グアム の空港の天気 - METARとTAF

グアム国際空港 ( PGUM / GUM ) - グアム ハガニア
飛行場実況気象(Metar)
観測時間09/30 14:54 ChST (09/30 04:54 UTC)
風向・風速西北西 6m/s
視程10km以上
天気現象
全天の4割程度の雲 雲底高度 460m
全天の4割程度の雲 雲底高度 1220m
気温30℃
湿度77%
気圧1004.1hPa
METARPGUM 300454Z AUTO 29012KT 10SM SCT015 SCT040 30/26 A2968 RMK AO2 SLP041 T03000256
過去の天気等 Google飛行場航空写真 Wunderground天気予報

過去48時間のMETAR

飛行場予報(TAF)
発表時間: 9/30 15:28 ChST (9/30 05:28 UTC)
予報対象時間: 30日16時 ChST ~ 1日22時 ChST
風向・風速西北西 6m/s
視程10km以上
天気現象周辺でしゅう雨
全天の4割程度の雲 雲底高度 490m
全天の4割程度の雲 雲底高度 1220m
全天を覆う雲 雲底高度 3050m
30日16時 ChST ~ 30日20時 ChST に一時的に
視程6440m
天気現象雷雨
全天の8割程度の積乱雲 雲底高度 460m
PGUM 300528Z 3006/0112 29012KT P6SM VCSH SCT016 SCT040 OVC100
TEMPO 3006/3010 4SM TSRA BKN015CB